Time;durP1;ratioP1;P1;durP2;ratioP2;P2;SDS_P1;SDS_P2;PMS_P1;PMS_P2;Temp;Humidity;BMP_temperature;BMP_pressure;BME280_temperature;BME280_humidity;BME280_pressure;Samples;Min_cycle;Max_cycle;Signal;HPM_P1;HPM_P2
2022/01/31 00:01:19;;;;;;;2.38;1.45;;;;;;;2.40;64.56;94514.72;5070354;28;20296;-75
2022/01/31 00:03:46;;;;;;;9.35;1.88;;;;;;;2.37;64.96;94517.94;5070261;28;20608;-76
2022/01/31 00:06:14;;;;;;;4.88;1.52;;;;;;;2.43;64.96;94508.81;5059119;28;20665;-77
2022/01/31 00:08:42;;;;;;;13.80;2.58;;;;;;;2.45;64.14;94506.69;5067149;28;20210;-76
2022/01/31 00:11:09;;;;;;;8.30;2.85;;;;;;;2.43;64.84;94514.16;5070698;28;20199;-77
2022/01/31 00:13:40;;;;;;;9.70;2.42;;;;;;;2.52;64.54;94504.47;5070079;28;20199;-76
2022/01/31 00:16:09;;;;;;;1.95;1.40;;;;;;;2.46;64.28;94500.25;5070062;28;20291;-76
2022/01/31 00:18:36;;;;;;;6.13;1.83;;;;;;;2.45;64.91;94501.31;5070185;28;20289;-75
2022/01/31 00:21:02;;;;;;;7.18;1.80;;;;;;;2.51;64.35;94510.88;5070399;28;20545;-76
2022/01/31 00:23:31;;;;;;;8.85;2.33;;;;;;;2.53;64.52;94522.09;5070508;28;20223;-77
2022/01/31 00:25:57;;;;;;;5.32;1.73;;;;;;;2.57;64.54;94517.78;5070447;28;20219;-76
2022/01/31 00:28:24;;;;;;;9.93;2.75;;;;;;;2.52;64.38;94507.13;5083495;28;20246;-76
2022/01/31 00:30:51;;;;;;;8.73;2.22;;;;;;;2.48;64.71;94514.09;5082575;28;20218;-76
2022/01/31 00:33:18;;;;;;;16.00;1.45;;;;;;;2.46;65.28;94505.59;5071272;28;20211;-77
2022/01/31 00:35:45;;;;;;;11.70;2.15;;;;;;;2.44;64.98;94505.88;5070252;28;20211;-75
2022/01/31 00:38:12;;;;;;;14.73;3.50;;;;;;;2.32;65.75;94515.31;5071593;28;20199;-76
2022/01/31 00:40:41;;;;;;;4.07;1.92;;;;;;;2.33;65.29;94506.22;5074150;28;20207;-75
2022/01/31 00:43:12;;;;;;;13.13;3.05;;;;;;;2.45;64.78;94509.34;5060141;28;20238;-77
2022/01/31 00:45:45;;;;;;;7.38;2.25;;;;;;;2.48;65.15;94524.81;5073432;28;20563;-75
2022/01/31 00:48:17;;;;;;;3.45;1.85;;;;;;;2.52;64.12;94509.81;5074095;28;20219;-74
2022/01/31 00:50:47;;;;;;;12.60;2.42;;;;;;;2.52;64.22;94535.75;5073448;28;20223;-74
2022/01/31 00:53:15;;;;;;;14.35;4.25;;;;;;;2.50;64.09;94534.16;5073146;28;20207;-75
2022/01/31 00:55:44;;;;;;;10.13;2.13;;;;;;;2.57;63.67;94531.16;5073927;28;20253;-75
2022/01/31 00:58:10;;;;;;;6.22;1.58;;;;;;;2.58;64.21;94540.00;5073478;28;20214;-77
2022/01/31 01:00:37;;;;;;;4.25;1.77;;;;;;;2.50;63.94;94534.16;5073278;28;20558;-77
2022/01/31 01:03:05;;;;;;;25.58;2.53;;;;;;;2.48;64.36;94528.28;5073866;28;20238;-76
2022/01/31 01:05:32;;;;;;;2.80;1.15;;;;;;;2.55;63.39;94541.34;5073930;28;20203;-76
2022/01/31 01:07:59;;;;;;;3.97;1.30;;;;;;;2.53;63.56;94543.50;5074317;28;20213;-76
2022/01/31 01:10:26;;;;;;;2.17;1.17;;;;;;;2.56;63.53;94532.25;5074408;28;20595;-75
2022/01/31 01:12:55;;;;;;;7.65;1.60;;;;;;;2.54;63.13;94539.75;5073880;28;20665;-76
2022/01/31 01:15:22;;;;;;;6.65;1.85;;;;;;;2.54;63.03;94529.03;5075968;28;20203;-76
2022/01/31 01:17:49;;;;;;;10.52;2.00;;;;;;;2.60;62.54;94546.63;5079133;28;20231;-76
2022/01/31 01:20:17;;;;;;;7.47;1.45;;;;;;;2.64;62.26;94534.31;5078839;28;20681;-76
2022/01/31 01:22:44;;;;;;;4.50;1.55;;;;;;;2.69;62.09;94536.94;5080050;28;20231;-76
2022/01/31 01:25:12;;;;;;;14.85;1.52;;;;;;;2.69;62.16;94542.28;5077552;28;20231;-75
2022/01/31 01:27:39;;;;;;;5.85;1.52;;;;;;;2.72;62.46;94536.38;5073379;28;20653;-75
2022/01/31 01:30:10;;;;;;;10.25;1.92;;;;;;;2.64;62.40;94534.31;5072877;28;20219;-75
2022/01/31 01:32:47;;;;;;;3.25;1.38;;;;;;;2.64;62.27;94528.16;5073345;28;20850;-75
2022/01/31 01:35:14;;;;;;;6.07;0.90;;;;;;;2.62;62.15;94523.09;5060290;28;20557;-75
2022/01/31 01:37:41;;;;;;;6.57;1.60;;;;;;;2.58;63.13;94507.91;5073218;28;20225;-75
2022/01/31 01:40:09;;;;;;;6.65;1.83;;;;;;;2.57;63.68;94517.78;5072942;28;20206;-75
2022/01/31 01:42:36;;;;;;;2.35;1.23;;;;;;;2.58;63.87;94523.94;5073110;28;20301;-74
2022/01/31 01:45:04;;;;;;;9.32;2.00;;;;;;;2.50;64.06;94528.00;5072769;28;20231;-74
2022/01/31 01:47:32;;;;;;;4.00;1.90;;;;;;;2.48;63.78;94519.44;5072488;28;20226;-76
2022/01/31 01:49:59;;;;;;;4.45;1.77;;;;;;;2.51;63.90;94518.91;5071146;28;20226;-76
2022/01/31 01:52:26;;;;;;;12.60;2.22;;;;;;;2.43;64.76;94516.84;5072455;28;20198;-77
2022/01/31 01:54:54;;;;;;;3.75;1.17;;;;;;;2.43;64.36;94519.50;5082149;28;20562;-75
2022/01/31 01:57:23;;;;;;;4.35;1.27;;;;;;;2.38;64.72;94515.00;5076331;28;20227;-74
2022/01/31 01:59:54;;;;;;;10.15;2.53;;;;;;;2.35;64.40;94522.75;5061664;28;20563;-75
2022/01/31 02:02:22;;;;;;;2.92;1.13;;;;;;;2.38;64.00;94519.53;5070439;28;20223;-76
2022/01/31 02:04:51;;;;;;;3.50;1.20;;;;;;;2.43;64.71;94528.34;5072031;28;20322;-75
2022/01/31 02:07:18;;;;;;;6.68;1.65;;;;;;;2.38;64.12;94522.22;5072175;28;20211;-75
2022/01/31 02:09:45;;;;;;;5.22;1.20;;;;;;;2.40;64.32;94522.72;5072218;28;20661;-75
2022/01/31 02:12:13;;;;;;;3.88;1.45;;;;;;;2.42;63.46;94523.25;5072387;28;20267;-75
2022/01/31 02:14:40;;;;;;;6.57;1.45;;;;;;;2.42;63.27;94520.59;5072033;28;20211;-75
2022/01/31 02:17:07;;;;;;;6.30;3.40;;;;;;;2.35;63.80;94514.75;5071945;28;20561;-75
2022/01/31 02:19:34;;;;;;;8.48;1.30;;;;;;;2.34;63.59;94508.59;5071712;28;20229;-75
2022/01/31 02:22:03;;;;;;;8.30;1.45;;;;;;;2.38;63.29;94524.88;5072402;28;20201;-75
2022/01/31 02:24:30;;;;;;;3.03;1.40;;;;;;;2.43;63.92;94522.19;5070987;28;20243;-75
2022/01/31 02:26:57;;;;;;;5.05;1.58;;;;;;;2.29;64.18;94526.56;5058723;28;20653;-73
2022/01/31 02:29:24;;;;;;;3.72;1.60;;;;;;;2.27;64.38;94526.03;5072077;28;20246;-74
2022/01/31 02:31:51;;;;;;;6.82;1.88;;;;;;;2.23;64.92;94528.47;5072294;28;20199;-76
2022/01/31 02:34:18;;;;;;;1.13;1.02;;;;;;;2.22;64.48;94518.03;5072146;28;20257;-75
2022/01/31 02:36:45;;;;;;;6.55;1.50;;;;;;;2.18;63.51;94530.38;5071561;28;20207;-75
2022/01/31 02:39:13;;;;;;;5.50;1.67;;;;;;;2.20;63.33;94536.22;5071394;28;20584;-74
2022/01/31 02:41:42;;;;;;;9.68;1.25;;;;;;;2.19;63.30;94532.75;5071908;28;20365;-75
2022/01/31 02:44:14;;;;;;;2.30;0.98;;;;;;;2.24;63.09;94534.59;5071410;28;20413;-75
2022/01/31 02:46:48;;;;;;;6.07;1.52;;;;;;;2.21;63.17;94529.81;5071651;28;20246;-75
2022/01/31 02:49:18;;;;;;;15.07;1.95;;;;;;;2.12;63.51;94530.41;5071497;28;20223;-75
2022/01/31 02:51:49;;;;;;;4.40;1.88;;;;;;;2.24;63.57;94537.28;5071512;28;20624;-75
2022/01/31 02:54:17;;;;;;;6.07;1.80;;;;;;;2.23;63.31;94533.00;5071182;28;20599;-75
2022/01/31 02:56:44;;;;;;;2.13;1.08;;;;;;;2.29;63.23;94535.38;5071213;28;20219;-76
2022/01/31 02:59:11;;;;;;;4.93;1.50;;;;;;;2.32;63.01;94542.06;5066254;28;20206;-77
2022/01/31 03:01:38;;;;;;;3.72;1.00;;;;;;;2.22;63.86;94531.41;5063372;28;20227;-76
2022/01/31 03:04:07;;;;;;;0.60;0.60;;;;;;;2.28;63.28;94524.97;5071184;28;20589;-75
2022/01/31 03:06:34;;;;;;;11.05;2.08;;;;;;;2.24;62.53;94545.28;5071403;28;20201;-78
2022/01/31 03:09:01;;;;;;;2.15;1.08;;;;;;;2.21;61.94;94541.28;5070811;28;20203;-75
2022/01/31 03:11:29;;;;;;;2.65;0.93;;;;;;;2.23;62.62;94543.69;5071436;28;20226;-76
2022/01/31 03:13:56;;;;;;;4.82;1.40;;;;;;;2.25;62.80;94544.22;5064607;28;20252;-76
2022/01/31 03:16:23;;;;;;;3.70;1.65;;;;;;;2.22;63.70;94547.44;5077651;28;20202;-75
2022/01/31 03:18:50;;;;;;;4.90;1.90;;;;;;;2.18;63.20;94535.72;5070987;28;20242;-75
2022/01/31 03:21:18;;;;;;;3.13;1.38;;;;;;;2.21;63.62;94546.63;5070789;28;20203;-75
2022/01/31 03:23:47;;;;;;;4.25;0.80;;;;;;;2.20;63.81;94539.69;5071078;28;20332;-76
2022/01/31 03:26:13;;;;;;;9.90;1.40;;;;;;;2.17;63.68;94540.28;5070289;28;20318;-75
2022/01/31 03:28:42;;;;;;;10.15;1.75;;;;;;;2.13;63.26;94523.19;5070719;28;20210;-75
2022/01/31 03:31:09;;;;;;;2.67;1.00;;;;;;;2.11;62.90;94533.34;5070463;28;20211;-76
2022/01/31 03:33:36;;;;;;;6.72;1.23;;;;;;;2.18;63.03;94530.38;5070843;28;20301;-75
2022/01/31 03:36:03;;;;;;;6.15;1.10;;;;;;;2.11;63.24;94514.66;5071032;28;20199;-75
2022/01/31 03:38:30;;;;;;;2.60;1.65;;;;;;;2.05;62.92;94531.81;5079295;28;20232;-75
2022/01/31 03:40:57;;;;;;;4.25;1.90;;;;;;;1.98;63.54;94524.09;5075118;28;20223;-75
2022/01/31 03:43:23;;;;;;;3.67;1.70;;;;;;;1.98;63.50;94532.09;5071100;28;20631;-76
2022/01/31 03:45:52;;;;;;;11.73;1.40;;;;;;;1.91;64.14;94534.28;5070880;28;20235;-75
2022/01/31 03:48:19;;;;;;;7.72;1.50;;;;;;;1.92;65.11;94530.50;5070693;28;20219;-75
2022/01/31 03:50:45;;;;;;;5.60;1.10;;;;;;;1.90;64.07;94540.69;5070684;28;20553;-76
2022/01/31 03:53:12;;;;;;;4.30;1.45;;;;;;;1.96;64.72;94536.91;5071041;28;20219;-74
2022/01/31 03:55:39;;;;;;;7.95;1.92;;;;;;;1.81;64.59;94537.00;5070343;28;20255;-75
2022/01/31 03:58:06;;;;;;;6.10;1.38;;;;;;;1.89;64.92;94528.41;5070272;28;20810;-75
2022/01/31 04:00:33;;;;;;;3.35;1.38;;;;;;;1.88;64.33;94537.50;5056800;28;20223;-76
2022/01/31 04:03:02;;;;;;;2.97;1.52;;;;;;;1.93;64.88;94534.78;5070540;28;20206;-74
2022/01/31 04:05:29;;;;;;;2.45;1.70;;;;;;;1.93;64.15;94534.78;5070641;28;20234;-76
2022/01/31 04:07:55;;;;;;;5.38;1.65;;;;;;;1.95;63.92;94535.31;5081314;28;20206;-74
2022/01/31 04:10:23;;;;;;;2.08;1.27;;;;;;;1.95;63.21;94537.97;5076372;28;20226;-75
2022/01/31 04:12:50;;;;;;;3.47;1.27;;;;;;;1.98;63.35;94541.97;5080925;28;20205;-75
2022/01/31 04:15:17;;;;;;;3.53;1.77;;;;;;;1.96;63.44;94539.59;5087983;28;20206;-75
2022/01/31 04:17:44;;;;;;;1.33;0.77;;;;;;;1.99;62.89;94549.72;5074552;28;20210;-75
2022/01/31 04:20:13;;;;;;;2.05;0.88;;;;;;;1.99;62.83;94538.25;5074387;28;20241;-75
2022/01/31 04:22:46;;;;;;;2.70;1.33;;;;;;;2.02;62.74;94543.84;5074569;28;20247;-74
2022/01/31 04:25:27;;;;;;;4.28;1.48;;;;;;;2.04;62.37;94535.53;5074067;28;20238;-76
2022/01/31 04:28:02;;;;;;;3.03;1.38;;;;;;;2.04;62.88;94539.03;5074632;28;20229;-76
2022/01/31 04:30:30;;;;;;;2.88;1.30;;;;;;;1.91;63.21;94542.28;5084048;28;20209;-75
2022/01/31 04:32:56;;;;;;;3.95;1.02;;;;;;;1.92;63.78;94537.72;5079349;28;20210;-76
2022/01/31 04:35:25;;;;;;;4.70;1.38;;;;;;;1.88;63.49;94534.84;5074812;28;20199;-76
2022/01/31 04:37:52;;;;;;;7.05;1.50;;;;;;;1.69;63.63;94526.63;5073549;28;20235;-75
2022/01/31 04:40:19;;;;;;;5.28;1.42;;;;;;;1.72;63.91;94534.09;5074252;28;20203;-76
2022/01/31 04:42:46;;;;;;;2.13;1.48;;;;;;;1.66;63.77;94545.06;5073939;28;20223;-76
2022/01/31 04:45:13;;;;;;;6.00;1.75;;;;;;;1.56;64.23;94542.44;5073805;28;20238;-76
2022/01/31 04:47:40;;;;;;;2.83;1.55;;;;;;;1.50;64.63;94535.53;5073549;28;20249;-77
2022/01/31 04:50:08;;;;;;;6.15;1.48;;;;;;;1.44;65.26;94526.75;5073673;28;20207;-74
2022/01/31 04:52:38;;;;;;;4.43;1.17;;;;;;;1.41;65.19;94532.63;5073600;28;20317;-74
2022/01/31 04:55:06;;;;;;;4.78;1.10;;;;;;;1.32;65.29;94537.72;5073602;28;20191;-76
2022/01/31 04:57:33;;;;;;;5.38;1.52;;;;;;;1.24;65.55;94524.94;5073697;28;20207;-76
2022/01/31 05:00:00;;;;;;;4.35;1.00;;;;;;;1.22;65.35;94539.63;5073045;28;20739;-75
2022/01/31 05:02:27;;;;;;;6.50;1.30;;;;;;;1.17;65.55;94534.31;5073863;28;20214;-75
2022/01/31 05:04:54;;;;;;;1.67;1.17;;;;;;;1.18;65.31;94539.38;5073605;28;20246;-76
2022/01/31 05:07:21;;;;;;;4.28;1.00;;;;;;;1.20;65.54;94525.78;5087381;28;20215;-74
2022/01/31 05:09:50;;;;;;;1.30;0.90;;;;;;;1.13;65.42;94526.03;5073586;28;20717;-77
2022/01/31 05:12:16;;;;;;;4.47;1.48;;;;;;;1.19;65.83;94519.63;5073135;28;20575;-78
2022/01/31 05:14:44;;;;;;;3.15;1.10;;;;;;;1.13;65.70;94531.38;5073409;28;20203;-79
2022/01/31 05:17:10;;;;;;;5.00;1.98;;;;;;;1.15;65.56;94523.91;5073590;28;20827;-78
2022/01/31 05:19:37;;;;;;;3.55;1.90;;;;;;;1.16;65.52;94530.84;5073069;28;20238;-76
2022/01/31 05:22:04;;;;;;;7.90;1.70;;;;;;;1.19;65.52;94527.63;5060978;28;20202;-76
2022/01/31 05:24:31;;;;;;;5.32;1.23;;;;;;;1.21;65.71;94528.16;5072659;28;20321;-75
2022/01/31 05:26:59;;;;;;;6.28;1.20;;;;;;;1.20;65.02;94531.91;5073352;28;20203;-76
2022/01/31 05:29:26;;;;;;;4.80;1.77;;;;;;;1.22;65.46;94535.09;5072449;28;20207;-75
2022/01/31 05:31:53;;;;;;;2.08;1.55;;;;;;;1.14;65.16;94521.50;5072788;28;20206;-75
2022/01/31 05:34:23;;;;;;;12.32;1.20;;;;;;;1.18;66.25;94522.56;5072251;28;20673;-77
2022/01/31 05:36:51;;;;;;;5.30;1.17;;;;;;;1.11;65.79;94530.84;5072388;28;20296;-76
2022/01/31 05:39:18;;;;;;;2.17;1.00;;;;;;;1.16;65.41;94520.16;5072440;28;20199;-76
2022/01/31 05:41:45;;;;;;;4.18;1.25;;;;;;;1.08;65.74;94523.41;5072102;28;20219;-76
2022/01/31 05:44:13;;;;;;;5.65;2.08;;;;;;;1.16;66.03;94525.50;5072162;28;20337;-76
2022/01/31 05:46:40;;;;;;;0.70;0.52;;;;;;;1.38;66.76;94517.94;5069562;28;20210;-71
2022/01/31 05:49:07;;;;;;;3.67;1.27;;;;;;;1.85;68.66;94516.69;5072677;28;20719;-72
2022/01/31 05:51:34;;;;;;;9.40;1.88;;;;;;;1.59;65.81;94520.56;5072527;28;20272;-71
2022/01/31 05:54:01;;;;;;;4.50;1.77;;;;;;;1.71;65.71;94521.03;5072849;28;20207;-72
2022/01/31 05:56:28;;;;;;;5.55;1.48;;;;;;;2.03;66.82;94526.72;5072663;28;20242;-72
2022/01/31 05:58:55;;;;;;;4.15;1.58;;;;;;;1.49;65.51;94520.59;5072835;28;20199;-77
2022/01/31 06:01:23;;;;;;;3.28;1.73;;;;;;;1.30;65.36;94521.19;5071603;28;20580;-78
2022/01/31 06:03:50;;;;;;;7.55;1.60;;;;;;;1.25;65.58;94526.53;5072243;28;20199;-75
2022/01/31 06:06:18;;;;;;;6.57;1.67;;;;;;;1.23;65.77;94528.66;5066848;28;20724;-75
2022/01/31 06:08:45;;;;;;;4.72;1.30;;;;;;;1.21;65.62;94533.50;5071270;28;20227;-78
2022/01/31 06:11:12;;;;;;;3.80;1.25;;;;;;;1.15;65.14;94521.25;5073072;28;20202;-75
2022/01/31 06:13:42;;;;;;;5.13;1.75;;;;;;;1.33;64.69;94509.97;5071897;28;20201;-75
2022/01/31 06:16:09;;;;;;;6.43;1.35;;;;;;;1.59;63.96;94523.22;5071664;28;20242;-75
2022/01/31 06:18:37;;;;;;;3.92;1.13;;;;;;;1.79;63.41;94523.09;5071929;28;20231;-77
2022/01/31 06:21:04;;;;;;;3.88;1.58;;;;;;;1.82;62.62;94535.13;5084020;28;20209;-74
2022/01/31 06:23:31;;;;;;;5.03;2.00;;;;;;;2.01;62.59;94536.88;5070671;28;20222;-77
2022/01/31 06:25:58;;;;;;;4.78;1.63;;;;;;;2.27;61.04;94534.06;5071434;28;20325;-76
2022/01/31 06:28:25;;;;;;;5.78;2.00;;;;;;;2.49;60.86;94526.41;5072172;28;20226;-74
2022/01/31 06:30:52;;;;;;;4.72;1.25;;;;;;;2.56;58.94;94510.84;5070862;28;20210;-74
2022/01/31 06:33:21;;;;;;;2.40;1.00;;;;;;;2.50;58.92;94501.28;5076542;28;20214;-75
2022/01/31 06:35:49;;;;;;;4.80;1.30;;;;;;;2.41;58.70;94505.63;5078349;28;20215;-78
2022/01/31 06:38:16;;;;;;;3.28;1.25;;;;;;;2.25;59.40;94510.28;5071356;28;20206;-76
2022/01/31 06:40:43;;;;;;;6.85;2.28;;;;;;;2.99;57.58;94486.94;5064221;28;20694;-76
2022/01/31 06:43:10;;;;;;;6.22;1.27;;;;;;;3.14;55.14;94481.41;5066810;28;20223;-75
2022/01/31 06:45:37;;;;;;;7.05;1.00;;;;;;;3.14;55.29;94484.09;5068622;28;20634;-80
2022/01/31 06:48:04;;;;;;;7.95;1.15;;;;;;;2.91;55.90;94484.84;5063257;28;20203;-75
2022/01/31 06:50:31;;;;;;;7.78;1.52;;;;;;;2.85;56.17;94471.53;5071480;28;20230;-79
2022/01/31 06:53:01;;;;;;;4.78;1.30;;;;;;;2.88;56.19;94475.50;5071048;28;20195;-77
2022/01/31 06:55:30;;;;;;;3.55;1.08;;;;;;;2.74;57.28;94478.06;5077496;28;20280;-77
2022/01/31 06:57:57;;;;;;;5.35;1.45;;;;;;;2.65;56.98;94486.97;5067567;28;20206;-78
2022/01/31 07:00:26;;;;;;;8.77;1.15;;;;;;;2.47;57.71;94483.91;5069255;28;20213;-77
2022/01/31 07:02:54;;;;;;;6.93;1.80;;;;;;;2.27;58.73;94485.97;5070544;28;20219;-76
2022/01/31 07:05:22;;;;;;;6.18;1.55;;;;;;;2.13;58.76;94486.59;5071311;28;20242;-78
2022/01/31 07:07:51;;;;;;;3.67;1.17;;;;;;;2.19;58.37;94487.34;5071176;28;20198;-76
2022/01/31 07:10:20;;;;;;;5.25;1.77;;;;;;;2.13;58.07;94470.56;5071065;28;20226;-76
2022/01/31 07:12:52;;;;;;;6.43;1.92;;;;;;;2.17;58.86;94476.16;5071246;28;20195;-74
2022/01/31 07:15:19;;;;;;;1.80;1.08;;;;;;;2.33;57.55;94458.09;5070278;28;20701;-75
2022/01/31 07:17:46;;;;;;;7.82;1.00;;;;;;;2.51;57.17;94470.78;5070176;28;20227;-77
2022/01/31 07:20:22;;;;;;;4.60;1.60;;;;;;;2.68;56.58;94475.72;5070824;28;20391;-75
2022/01/31 07:22:57;;;;;;;3.90;1.38;;;;;;;2.72;56.15;94471.41;5071277;28;20664;-76
2022/01/31 07:25:35;;;;;;;6.50;1.58;;;;;;;2.64;55.17;94464.78;5069480;28;20283;-75
2022/01/31 07:28:04;;;;;;;7.65;1.50;;;;;;;2.55;55.66;94461.13;5071076;28;20273;-73
2022/01/31 07:30:31;;;;;;;2.55;1.30;;;;;;;2.71;55.79;94449.22;5071048;28;20245;-74
2022/01/31 07:32:58;;;;;;;2.25;1.08;;;;;;;2.76;55.22;94441.13;5070366;28;20243;-72
2022/01/31 07:35:37;;;;;;;2.70;1.63;;;;;;;2.72;54.76;94434.78;5070368;28;20226;-74
2022/01/31 07:38:05;;;;;;;2.97;0.93;;;;;;;2.84;54.52;94415.66;5070796;28;20236;-76
2022/01/31 07:40:33;;;;;;;2.88;1.13;;;;;;;2.94;54.03;94428.91;5070737;28;20223;-76
2022/01/31 07:43:00;;;;;;;0.90;0.68;;;;;;;2.95;53.07;94422.47;5070592;28;20199;-77
2022/01/31 07:45:27;;;;;;;2.30;1.33;;;;;;;2.97;52.97;94427.56;5070675;28;20308;-77
2022/01/31 07:47:54;;;;;;;5.65;1.02;;;;;;;3.12;53.74;94430.06;5069511;28;20230;-78
2022/01/31 07:50:21;;;;;;;7.80;2.03;;;;;;;2.99;54.25;94428.88;5069085;28;20218;-75
2022/01/31 07:52:48;;;;;;;8.48;2.47;;;;;;;3.09;53.42;94422.59;5070582;28;20230;-77
2022/01/31 07:55:15;;;;;;;3.72;1.42;;;;;;;2.92;53.77;94428.41;5066718;28;20679;-77
2022/01/31 07:57:46;;;;;;;4.10;1.30;;;;;;;2.76;54.02;94418.94;5070444;28;20696;-84
2022/01/31 08:00:14;;;;;;;4.93;1.50;;;;;;;2.90;53.44;94413.72;5069975;28;20553;-77
2022/01/31 08:02:41;;;;;;;1.58;1.10;;;;;;;2.98;53.92;94413.09;5070328;28;20582;-77
2022/01/31 08:05:09;;;;;;;4.45;1.58;;;;;;;2.80;53.24;94415.41;5069637;28;20203;-82
2022/01/31 08:07:36;;;;;;;7.03;1.92;;;;;;;2.80;53.57;94436.03;5070507;28;20245;-77
2022/01/31 08:10:07;;;;;;;1.95;0.50;;;;;;;2.91;54.11;94420.66;5070790;28;20210;-75
2022/01/31 08:12:36;;;;;;;8.15;1.25;;;;;;;2.96;54.22;94417.94;5070720;28;20676;-77
2022/01/31 08:15:07;;;;;;;3.28;1.13;;;;;;;3.10;53.79;94413.50;5069731;28;20227;-79
2022/01/31 08:17:35;;;;;;;2.60;1.30;;;;;;;3.39;53.83;94432.94;5070295;28;20608;-78
2022/01/31 08:20:02;;;;;;;4.75;1.42;;;;;;;3.36;52.04;94425.47;5069358;28;20198;-77
2022/01/31 08:22:29;;;;;;;3.38;1.08;;;;;;;3.33;52.20;94428.72;5068696;28;20198;-78
2022/01/31 08:24:56;;;;;;;6.55;1.75;;;;;;;3.25;52.83;94426.69;5073774;28;20619;-78
2022/01/31 08:27:23;;;;;;;3.15;0.80;;;;;;;3.22;52.49;94411.19;5072247;28;20239;-75
2022/01/31 08:29:55;;;;;;;4.63;1.58;;;;;;;3.09;51.61;94403.88;5063964;28;20318;-77
2022/01/31 08:32:33;;;;;;;3.03;1.75;;;;;;;3.03;52.87;94405.00;5066447;28;20223;-76
2022/01/31 08:37:48;;;;;;;2.40;1.20;;;;;;;3.26;53.12;94424.81;5052042;28;20269;-75
2022/01/31 08:40:18;;;;;;;4.15;1.08;;;;;;;3.33;52.78;94428.72;5070213;28;20226;-76
2022/01/31 08:42:45;;;;;;;6.88;1.80;;;;;;;3.09;53.23;94425.28;5068080;28;20195;-76
2022/01/31 08:45:12;;;;;;;4.22;2.33;;;;;;;3.12;54.23;94438.09;5069586;28;20566;-75
2022/01/31 08:47:43;;;;;;;2.17;1.13;;;;;;;3.37;53.35;94439.66;5064812;28;20290;-76
2022/01/31 08:50:11;;;;;;;5.18;2.17;;;;;;;3.42;53.04;94432.34;5067168;28;20710;-77
2022/01/31 08:52:38;;;;;;;4.03;2.00;;;;;;;3.54;53.03;94438.09;5069569;28;20203;-77
2022/01/31 08:55:06;;;;;;;7.13;2.10;;;;;;;3.45;51.90;94431.78;5069828;28;20198;-81
2022/01/31 08:57:34;;;;;;;3.03;1.38;;;;;;;3.61;52.75;94418.19;5069145;28;20213;-76
2022/01/31 09:00:01;;;;;;;20.08;2.13;;;;;;;3.87;51.57;94433.59;5072644;28;20199;-75
2022/01/31 09:02:37;;;;;;;6.22;1.95;;;;;;;3.82;52.80;94427.53;5073095;28;20229;-74
2022/01/31 09:05:08;;;;;;;6.38;1.52;;;;;;;3.99;51.08;94409.03;5086270;28;20671;-77
2022/01/31 09:07:34;;;;;;;3.65;1.95;;;;;;;3.86;51.45;94423.19;5072938;28;20223;-73
2022/01/31 09:10:01;;;;;;;7.60;1.77;;;;;;;3.96;50.03;94403.50;5072638;28;20224;-76
2022/01/31 09:12:31;;;;;;;12.02;2.40;;;;;;;4.07;50.09;94389.66;5072814;28;20279;-72
2022/01/31 09:14:59;;;;;;;9.40;2.55;;;;;;;4.38;50.43;94400.63;5073115;28;20741;-76
2022/01/31 09:17:26;;;;;;;8.52;2.83;;;;;;;4.44;49.63;94399.47;5072317;28;20277;-76
2022/01/31 09:19:53;;;;;;;7.15;3.20;;;;;;;3.96;49.56;94382.06;5072908;28;20547;-76
2022/01/31 09:22:21;;;;;;;2.72;1.08;;;;;;;4.13;49.37;94388.47;5082913;28;20195;-78
2022/01/31 09:24:50;;;;;;;6.30;1.92;;;;;;;4.05;49.49;94386.44;5077888;28;20202;-76
2022/01/31 09:27:17;;;;;;;3.80;1.63;;;;;;;3.81;49.80;94369.69;5074632;28;20229;-76
2022/01/31 09:29:44;;;;;;;3.72;1.48;;;;;;;3.82;49.13;94372.09;5076050;28;20312;-76
2022/01/31 09:32:12;;;;;;;4.18;1.58;;;;;;;3.67;50.41;94364.28;5076739;28;20199;-75
2022/01/31 09:34:39;;;;;;;7.15;1.70;;;;;;;3.82;51.13;94360.56;5075136;28;20229;-75
2022/01/31 09:37:07;;;;;;;8.45;2.55;;;;;;;3.91;49.63;94343.53;5083002;28;20233;-78
2022/01/31 09:39:35;;;;;;;5.60;1.70;;;;;;;3.89;49.47;94356.41;5072296;28;20207;-78
2022/01/31 09:42:03;;;;;;;4.40;1.50;;;;;;;4.28;49.12;94364.09;5072365;28;20282;-75
2022/01/31 09:44:51;;;;;;;4.15;1.55;;;;;;;4.51;48.85;94353.50;5072425;28;20222;-76
2022/01/31 09:47:23;;;;;;;5.43;1.55;;;;;;;5.20;48.08;94343.56;5072296;28;20215;-76
2022/01/31 09:49:51;;;;;;;5.90;1.58;;;;;;;5.33;46.62;94340.06;5059893;28;20258;-78
2022/01/31 09:52:21;;;;;;;2.45;1.17;;;;;;;5.22;46.07;94336.78;5072449;28;20199;-76
2022/01/31 09:54:49;;;;;;;5.22;1.45;;;;;;;5.25;46.70;94328.13;5072253;28;20206;-74
2022/01/31 09:57:18;;;;;;;1.58;0.77;;;;;;;4.66;46.75;94326.38;5072771;28;20282;-75
2022/01/31 09:59:45;;;;;;;11.43;3.28;;;;;;;5.20;46.52;94314.00;5071647;28;20234;-74
2022/01/31 10:02:14;;;;;;;5.38;1.90;;;;;;;5.10;45.15;94315.03;5071452;28;20203;-76
2022/01/31 10:04:44;;;;;;;9.60;2.50;;;;;;;5.29;45.23;94290.75;5071729;28;20339;-75
2022/01/31 10:07:13;;;;;;;4.28;1.80;;;;;;;5.46;44.73;94290.09;5071733;28;20231;-75
2022/01/31 10:09:43;;;;;;;10.32;2.20;;;;;;;5.11;44.63;94291.66;5071228;28;20223;-74
2022/01/31 10:12:23;;;;;;;7.68;1.88;;;;;;;5.50;44.49;94291.88;5070645;28;20268;-74
2022/01/31 10:17:36;;;;;;;8.82;3.00;;;;;;;4.49;47.27;94272.56;5068881;28;20553;-75
2022/01/31 10:20:06;;;;;;;7.20;2.50;;;;;;;4.52;47.99;94266.56;5071999;28;20198;-77
2022/01/31 10:22:34;;;;;;;7.88;2.08;;;;;;;4.52;46.83;94243.25;5083005;28;20202;-77
2022/01/31 10:25:07;;;;;;;4.20;1.90;;;;;;;4.45;47.54;94239.38;5073384;28;20252;-75
2022/01/31 10:27:36;;;;;;;7.97;1.75;;;;;;;4.40;46.96;94242.16;5071371;28;20706;-77
2022/01/31 10:30:10;;;;;;;7.57;2.20;;;;;;;4.72;45.93;94228.63;5053709;28;20206;-77
2022/01/31 10:32:39;;;;;;;7.93;1.83;;;;;;;4.72;45.86;94228.63;5065607;28;20344;-76
2022/01/31 10:35:08;;;;;;;5.15;1.92;;;;;;;4.91;46.47;94231.97;5071740;28;20260;-76
2022/01/31 10:37:38;;;;;;;4.97;1.42;;;;;;;4.63;45.98;94228.56;5071314;28;20203;-75
2022/01/31 10:46:05;;;;;;;4.82;1.55;;;;;;;4.75;45.90;94214.63;5035620;28;20208;-77
2022/01/31 10:54:23;;;;;;;3.75;1.50;;;;;;;4.77;44.43;94169.50;5070496;28;20206;-78
2022/01/31 10:56:52;;;;;;;4.65;1.60;;;;;;;5.00;45.83;94160.38;5070919;28;20229;-77
2022/01/31 10:59:24;;;;;;;6.72;1.80;;;;;;;5.27;43.61;94148.72;5051095;28;20204;-76
2022/01/31 11:01:53;;;;;;;6.43;1.67;;;;;;;5.47;44.00;94149.31;5065050;28;20622;-78
2022/01/31 11:04:21;;;;;;;11.98;2.20;;;;;;;5.46;44.62;94153.13;5070726;28;20210;-79
2022/01/31 11:06:50;;;;;;;5.18;1.85;;;;;;;5.34;44.15;94137.53;5070330;28;20704;-78
2022/01/31 11:09:20;;;;;;;5.97;1.83;;;;;;;5.55;43.75;94138.63;5070280;28;20219;-80
2022/01/31 11:11:49;;;;;;;6.47;1.70;;;;;;;5.26;42.48;94146.34;5070502;28;20229;-77
2022/01/31 11:14:16;;;;;;;7.28;1.90;;;;;;;5.47;43.00;94131.31;5071188;28;20213;-79
2022/01/31 11:16:47;;;;;;;5.75;1.60;;;;;;;5.12;44.56;94134.88;5070854;28;20207;-78
2022/01/31 11:19:17;;;;;;;9.48;3.42;;;;;;;5.53;44.02;94138.16;5070435;28;20234;-77
2022/01/31 11:21:48;;;;;;;4.82;1.77;;;;;;;5.89;44.07;94131.88;5070029;28;20199;-76
2022/01/31 11:24:20;;;;;;;5.75;2.83;;;;;;;5.89;42.67;94121.09;5071344;28;20235;-75
2022/01/31 11:26:49;;;;;;;10.25;3.13;;;;;;;5.22;43.67;94129.25;5083785;28;20693;-77
2022/01/31 11:29:17;;;;;;;8.90;2.72;;;;;;;5.14;44.78;94116.59;5071014;28;20227;-76
2022/01/31 11:31:47;;;;;;;9.88;3.30;;;;;;;5.47;42.60;94104.44;5070777;28;20284;-75
2022/01/31 11:34:14;;;;;;;10.50;1.80;;;;;;;5.35;41.85;94096.16;5070725;28;20219;-76
2022/01/31 11:36:44;;;;;;;8.02;2.05;;;;;;;5.28;43.51;94103.88;5070562;28;20234;-76
2022/01/31 11:39:13;;;;;;;5.10;1.58;;;;;;;5.42;42.25;94106.50;5070319;28;20222;-76
2022/01/31 11:41:46;;;;;;;2.88;1.38;;;;;;;5.81;41.81;94092.28;5070322;28;20665;-75
2022/01/31 11:44:23;;;;;;;3.17;1.25;;;;;;;5.32;41.93;94096.81;5067823;28;20195;-81
2022/01/31 11:46:52;;;;;;;3.85;1.45;;;;;;;5.05;43.04;94081.66;5070413;28;20214;-77
2022/01/31 11:49:20;;;;;;;6.97;1.58;;;;;;;5.31;42.98;94073.75;5070378;28;20206;-78
2022/01/31 11:52:01;;;;;;;7.55;2.10;;;;;;;5.50;43.98;94066.22;5067957;28;20198;-77
2022/01/31 11:54:27;;;;;;;6.03;1.48;;;;;;;5.59;42.10;94056.34;5070263;28;20187;-79
2022/01/31 11:56:57;;;;;;;3.15;1.50;;;;;;;5.67;40.83;94047.50;5069802;28;20704;-78
2022/01/31 11:59:25;;;;;;;6.35;2.10;;;;;;;5.40;43.27;94044.22;5063372;28;20199;-76
2022/01/31 12:01:58;;;;;;;7.30;1.67;;;;;;;5.24;43.83;94035.78;5064950;28;20203;-75
2022/01/31 12:04:33;;;;;;;4.00;1.73;;;;;;;5.57;43.24;94031.69;5070012;28;20245;-76